sensor_id;sensor_type;location;lat;lon;timestamp;temperature;humidity
6824;DHT22;58633;49.470;11.004;2023-06-10T00:01:45;18.90;59.30
6824;DHT22;58633;49.470;11.004;2023-06-10T00:04:14;19.10;59.70
6824;DHT22;58633;49.470;11.004;2023-06-10T00:06:41;19.10;59.70
6824;DHT22;58633;49.470;11.004;2023-06-10T00:09:07;19.10;59.60
6824;DHT22;58633;49.470;11.004;2023-06-10T00:11:36;19.10;59.80
6824;DHT22;58633;49.470;11.004;2023-06-10T00:14:02;18.90;59.40
6824;DHT22;58633;49.470;11.004;2023-06-10T00:18:54;19.10;59.90
6824;DHT22;58633;49.470;11.004;2023-06-10T00:21:34;18.60;59.60
6824;DHT22;58633;49.470;11.004;2023-06-10T00:24:08;19.10;60.10
6824;DHT22;58633;49.470;11.004;2023-06-10T00:26:38;18.80;59.80
6824;DHT22;58633;49.470;11.004;2023-06-10T00:29:04;18.90;60.00
6824;DHT22;58633;49.470;11.004;2023-06-10T00:31:30;19.00;60.40
6824;DHT22;58633;49.470;11.004;2023-06-10T00:36:22;18.80;60.40
6824;DHT22;58633;49.470;11.004;2023-06-10T00:38:47;18.90;60.80
6824;DHT22;58633;49.470;11.004;2023-06-10T00:41:13;18.80;60.90
6824;DHT22;58633;49.470;11.004;2023-06-10T00:43:39;18.80;61.60
6824;DHT22;58633;49.470;11.004;2023-06-10T00:46:04;19.00;61.60
6824;DHT22;58633;49.470;11.004;2023-06-10T00:48:30;18.60;61.30
6824;DHT22;58633;49.470;11.004;2023-06-10T00:50:56;18.50;61.60
6824;DHT22;58633;49.470;11.004;2023-06-10T00:53:22;18.60;62.00
6824;DHT22;58633;49.470;11.004;2023-06-10T00:55:48;18.80;62.10
6824;DHT22;58633;49.470;11.004;2023-06-10T01:00:40;18.60;62.40
6824;DHT22;58633;49.470;11.004;2023-06-10T01:03:05;18.50;63.00
6824;DHT22;58633;49.470;11.004;2023-06-10T01:05:36;18.50;62.60
6824;DHT22;58633;49.470;11.004;2023-06-10T01:08:47;18.30;62.60
6824;DHT22;58633;49.470;11.004;2023-06-10T01:11:22;18.30;62.70
6824;DHT22;58633;49.470;11.004;2023-06-10T01:13:50;18.40;63.00
6824;DHT22;58633;49.470;11.004;2023-06-10T01:16:18;18.30;63.20
6824;DHT22;58633;49.470;11.004;2023-06-10T01:18:44;18.30;63.20
6824;DHT22;58633;49.470;11.004;2023-06-10T01:21:19;18.00;63.10
6824;DHT22;58633;49.470;11.004;2023-06-10T01:23:44;18.10;63.20
6824;DHT22;58633;49.470;11.004;2023-06-10T01:26:11;18.10;63.60
6824;DHT22;58633;49.470;11.004;2023-06-10T01:28:56;18.10;63.60
6824;DHT22;58633;49.470;11.004;2023-06-10T01:31:42;18.20;63.90
6824;DHT22;58633;49.470;11.004;2023-06-10T01:34:10;18.30;64.00
6824;DHT22;58633;49.470;11.004;2023-06-10T01:36:38;18.00;63.50
6824;DHT22;58633;49.470;11.004;2023-06-10T01:39:04;18.10;63.70
6824;DHT22;58633;49.470;11.004;2023-06-10T01:41:31;18.20;63.60
6824;DHT22;58633;49.470;11.004;2023-06-10T01:43:57;18.10;63.60
6824;DHT22;58633;49.470;11.004;2023-06-10T01:46:23;18.00;63.70
6824;DHT22;58633;49.470;11.004;2023-06-10T01:51:14;18.40;64.50
6824;DHT22;58633;49.470;11.004;2023-06-10T01:53:40;17.90;64.10
6824;DHT22;58633;49.470;11.004;2023-06-10T01:56:06;17.90;64.70
6824;DHT22;58633;49.470;11.004;2023-06-10T01:58:31;17.90;64.40
6824;DHT22;58633;49.470;11.004;2023-06-10T02:03:23;17.60;64.10
6824;DHT22;58633;49.470;11.004;2023-06-10T02:05:49;17.80;64.50
6824;DHT22;58633;49.470;11.004;2023-06-10T02:08:14;17.50;64.30
6824;DHT22;58633;49.470;11.004;2023-06-10T02:10:40;17.60;64.50
6824;DHT22;58633;49.470;11.004;2023-06-10T02:13:06;17.70;64.70
6824;DHT22;58633;49.470;11.004;2023-06-10T02:15:31;17.80;64.60
6824;DHT22;58633;49.470;11.004;2023-06-10T02:20:23;17.80;64.80
6824;DHT22;58633;49.470;11.004;2023-06-10T02:22:49;17.70;64.90
6824;DHT22;58633;49.470;11.004;2023-06-10T02:25:14;18.10;65.50
6824;DHT22;58633;49.470;11.004;2023-06-10T02:30:06;17.80;65.50
6824;DHT22;58633;49.470;11.004;2023-06-10T02:32:34;17.80;65.40
6824;DHT22;58633;49.470;11.004;2023-06-10T02:37:26;17.40;65.20
6824;DHT22;58633;49.470;11.004;2023-06-10T02:39:52;17.60;65.30
6824;DHT22;58633;49.470;11.004;2023-06-10T02:42:17;17.50;65.50
6824;DHT22;58633;49.470;11.004;2023-06-10T02:44:43;17.50;65.50
6824;DHT22;58633;49.470;11.004;2023-06-10T02:47:08;17.40;65.70
6824;DHT22;58633;49.470;11.004;2023-06-10T02:49:34;17.10;65.60
6824;DHT22;58633;49.470;11.004;2023-06-10T02:51:59;17.50;65.80
6824;DHT22;58633;49.470;11.004;2023-06-10T02:54:26;17.50;65.60
6824;DHT22;58633;49.470;11.004;2023-06-10T02:56:52;17.50;65.70
6824;DHT22;58633;49.470;11.004;2023-06-10T02:59:18;17.20;65.60
6824;DHT22;58633;49.470;11.004;2023-06-10T03:01:43;17.50;65.70
6824;DHT22;58633;49.470;11.004;2023-06-10T03:04:09;17.30;65.70
6824;DHT22;58633;49.470;11.004;2023-06-10T03:06:35;17.60;66.00
6824;DHT22;58633;49.470;11.004;2023-06-10T03:11:26;17.30;65.70
6824;DHT22;58633;49.470;11.004;2023-06-10T03:13:52;17.60;65.90
6824;DHT22;58633;49.470;11.004;2023-06-10T03:16:19;17.40;65.80
6824;DHT22;58633;49.470;11.004;2023-06-10T03:18:45;17.30;66.40
6824;DHT22;58633;49.470;11.004;2023-06-10T03:21:11;17.10;65.90
6824;DHT22;58633;49.470;11.004;2023-06-10T03:23:36;17.00;65.80
6824;DHT22;58633;49.470;11.004;2023-06-10T03:26:02;17.60;66.40
6824;DHT22;58633;49.470;11.004;2023-06-10T03:28:27;17.20;66.60
6824;DHT22;58633;49.470;11.004;2023-06-10T03:30:53;17.10;66.00
6824;DHT22;58633;49.470;11.004;2023-06-10T03:35:45;16.90;66.00
6824;DHT22;58633;49.470;11.004;2023-06-10T03:40:37;17.10;66.40
6824;DHT22;58633;49.470;11.004;2023-06-10T03:43:02;17.20;66.50
6824;DHT22;58633;49.470;11.004;2023-06-10T03:45:28;17.30;66.40
6824;DHT22;58633;49.470;11.004;2023-06-10T03:47:53;17.10;66.10
6824;DHT22;58633;49.470;11.004;2023-06-10T03:50:19;17.00;65.80
6824;DHT22;58633;49.470;11.004;2023-06-10T03:52:45;17.30;66.20
6824;DHT22;58633;49.470;11.004;2023-06-10T03:55:11;17.20;66.20
6824;DHT22;58633;49.470;11.004;2023-06-10T03:57:39;17.10;66.60
6824;DHT22;58633;49.470;11.004;2023-06-10T04:00:05;17.30;66.40
6824;DHT22;58633;49.470;11.004;2023-06-10T04:02:38;17.20;66.00
6824;DHT22;58633;49.470;11.004;2023-06-10T04:05:11;17.10;65.80
6824;DHT22;58633;49.470;11.004;2023-06-10T04:07:37;17.00;65.80
6824;DHT22;58633;49.470;11.004;2023-06-10T04:10:05;17.00;66.00
6824;DHT22;58633;49.470;11.004;2023-06-10T04:12:31;17.10;66.00
6824;DHT22;58633;49.470;11.004;2023-06-10T04:14:56;17.20;66.10
6824;DHT22;58633;49.470;11.004;2023-06-10T04:17:22;16.90;65.90
6824;DHT22;58633;49.470;11.004;2023-06-10T04:19:48;17.20;66.20
6824;DHT22;58633;49.470;11.004;2023-06-10T04:22:13;17.50;66.30
6824;DHT22;58633;49.470;11.004;2023-06-10T04:24:39;17.10;66.10
6824;DHT22;58633;49.470;11.004;2023-06-10T04:27:04;17.20;66.00
6824;DHT22;58633;49.470;11.004;2023-06-10T04:29:30;17.20;66.00
6824;DHT22;58633;49.470;11.004;2023-06-10T04:31:56;17.20;66.60
6824;DHT22;58633;49.470;11.004;2023-06-10T04:34:21;17.20;65.80
6824;DHT22;58633;49.470;11.004;2023-06-10T04:36:47;17.30;65.80
6824;DHT22;58633;49.470;11.004;2023-06-10T04:39:13;17.30;65.80
6824;DHT22;58633;49.470;11.004;2023-06-10T04:41:38;17.40;65.80
6824;DHT22;58633;49.470;11.004;2023-06-10T04:44:04;17.40;66.40
6824;DHT22;58633;49.470;11.004;2023-06-10T04:46:29;17.30;65.50
6824;DHT22;58633;49.470;11.004;2023-06-10T04:48:57;17.30;65.50
6824;DHT22;58633;49.470;11.004;2023-06-10T04:51:22;17.00;65.20
6824;DHT22;58633;49.470;11.004;2023-06-10T04:53:48;17.40;65.50
6824;DHT22;58633;49.470;11.004;2023-06-10T04:56:13;17.40;65.30
6824;DHT22;58633;49.470;11.004;2023-06-10T04:58:40;17.40;65.30
6824;DHT22;58633;49.470;11.004;2023-06-10T05:01:06;17.30;65.30
6824;DHT22;58633;49.470;11.004;2023-06-10T05:03:31;17.10;65.00
6824;DHT22;58633;49.470;11.004;2023-06-10T05:05:57;17.40;66.00
6824;DHT22;58633;49.470;11.004;2023-06-10T05:08:22;17.50;65.60
6824;DHT22;58633;49.470;11.004;2023-06-10T05:10:47;17.50;65.60
6824;DHT22;58633;49.470;11.004;2023-06-10T05:13:13;17.10;65.00
6824;DHT22;58633;49.470;11.004;2023-06-10T05:15:38;18.40;66.90
6824;DHT22;58633;49.470;11.004;2023-06-10T05:18:04;17.60;65.60
6824;DHT22;58633;49.470;11.004;2023-06-10T05:20:29;18.90;67.40
6824;DHT22;58633;49.470;11.004;2023-06-10T05:22:55;17.70;65.50
6824;DHT22;58633;49.470;11.004;2023-06-10T05:27:47;17.70;65.30
6824;DHT22;58633;49.470;11.004;2023-06-10T05:30:12;17.80;66.00
6824;DHT22;58633;49.470;11.004;2023-06-10T05:32:38;17.60;65.00
6824;DHT22;58633;49.470;11.004;2023-06-10T05:35:04;17.90;65.30
6824;DHT22;58633;49.470;11.004;2023-06-10T05:37:30;17.80;65.20
6824;DHT22;58633;49.470;11.004;2023-06-10T05:39:55;17.90;65.30
6824;DHT22;58633;49.470;11.004;2023-06-10T05:42:21;18.00;65.50
6824;DHT22;58633;49.470;11.004;2023-06-10T05:44:46;18.00;65.60
6824;DHT22;58633;49.470;11.004;2023-06-10T05:47:12;18.00;66.20
6824;DHT22;58633;49.470;11.004;2023-06-10T05:49:37;18.20;65.90
6824;DHT22;58633;49.470;11.004;2023-06-10T05:54:29;18.20;65.60
6824;DHT22;58633;49.470;11.004;2023-06-10T05:56:54;18.00;65.30
6824;DHT22;58633;49.470;11.004;2023-06-10T05:59:20;18.40;65.60
6824;DHT22;58633;49.470;11.004;2023-06-10T06:01:48;18.30;65.40
6824;DHT22;58633;49.470;11.004;2023-06-10T06:04:14;18.40;65.40
6824;DHT22;58633;49.470;11.004;2023-06-10T06:06:39;18.40;65.90
6824;DHT22;58633;49.470;11.004;2023-06-10T06:09:05;18.30;65.20
6824;DHT22;58633;49.470;11.004;2023-06-10T06:11:33;18.50;65.90
6824;DHT22;58633;49.470;11.004;2023-06-10T06:13:58;18.60;65.50
6824;DHT22;58633;49.470;11.004;2023-06-10T06:16:24;18.70;65.60
6824;DHT22;58633;49.470;11.004;2023-06-10T06:18:49;18.80;65.60
6824;DHT22;58633;49.470;11.004;2023-06-10T06:21:15;18.90;65.50
6824;DHT22;58633;49.470;11.004;2023-06-10T06:23:40;18.80;65.20
6824;DHT22;58633;49.470;11.004;2023-06-10T06:26:06;18.70;65.60
6824;DHT22;58633;49.470;11.004;2023-06-10T06:28:31;18.90;64.90
6824;DHT22;58633;49.470;11.004;2023-06-10T06:30:57;19.00;64.90
6824;DHT22;58633;49.470;11.004;2023-06-10T06:33:23;18.80;64.60
6824;DHT22;58633;49.470;11.004;2023-06-10T06:35:48;18.90;64.70
6824;DHT22;58633;49.470;11.004;2023-06-10T06:38:14;19.20;64.80
6824;DHT22;58633;49.470;11.004;2023-06-10T06:40:39;19.10;65.30
6824;DHT22;58633;49.470;11.004;2023-06-10T06:43:05;19.30;64.80
6824;DHT22;58633;49.470;11.004;2023-06-10T06:47:59;19.10;64.50
6824;DHT22;58633;49.470;11.004;2023-06-10T06:50:25;19.40;65.40
6824;DHT22;58633;49.470;11.004;2023-06-10T06:52:50;19.50;65.30
6824;DHT22;58633;49.470;11.004;2023-06-10T06:55:16;19.60;65.40
6824;DHT22;58633;49.470;11.004;2023-06-10T07:00:07;19.50;64.30
6824;DHT22;58633;49.470;11.004;2023-06-10T07:02:34;19.60;64.90
6824;DHT22;58633;49.470;11.004;2023-06-10T07:05:00;19.70;64.30
6824;DHT22;58633;49.470;11.004;2023-06-10T07:07:26;19.70;64.30
6824;DHT22;58633;49.470;11.004;2023-06-10T07:09:52;19.70;64.80
6824;DHT22;58633;49.470;11.004;2023-06-10T07:12:17;19.80;64.20
6824;DHT22;58633;49.470;11.004;2023-06-10T07:17:10;20.20;64.50
6824;DHT22;58633;49.470;11.004;2023-06-10T07:22:01;20.20;64.30
6824;DHT22;58633;49.470;11.004;2023-06-10T07:24:27;20.10;64.00
6824;DHT22;58633;49.470;11.004;2023-06-10T07:26:52;20.30;64.10
6824;DHT22;58633;49.470;11.004;2023-06-10T07:29:18;20.50;64.10
6824;DHT22;58633;49.470;11.004;2023-06-10T07:31:43;20.40;64.60
6824;DHT22;58633;49.470;11.004;2023-06-10T07:34:09;20.50;64.30
6824;DHT22;58633;49.470;11.004;2023-06-10T07:36:34;20.70;62.90
6824;DHT22;58633;49.470;11.004;2023-06-10T07:39:00;20.90;62.20
6824;DHT22;58633;49.470;11.004;2023-06-10T07:41:25;20.90;61.70
6824;DHT22;58633;49.470;11.004;2023-06-10T07:43:53;21.00;62.30
6824;DHT22;58633;49.470;11.004;2023-06-10T07:46:21;21.00;61.90
6824;DHT22;58633;49.470;11.004;2023-06-10T07:48:47;21.30;61.80
6824;DHT22;58633;49.470;11.004;2023-06-10T07:51:12;21.40;61.00
6824;DHT22;58633;49.470;11.004;2023-06-10T07:53:38;21.00;60.20
6824;DHT22;58633;49.470;11.004;2023-06-10T07:56:03;21.50;60.70
6824;DHT22;58633;49.470;11.004;2023-06-10T07:58:29;21.50;61.10
6824;DHT22;58633;49.470;11.004;2023-06-10T08:00:55;21.40;60.90
6824;DHT22;58633;49.470;11.004;2023-06-10T08:03:21;21.60;60.70
6824;DHT22;58633;49.470;11.004;2023-06-10T08:05:47;21.60;59.70
6824;DHT22;58633;49.470;11.004;2023-06-10T08:08:13;21.80;59.50
6824;DHT22;58633;49.470;11.004;2023-06-10T08:10:38;21.80;59.50
6824;DHT22;58633;49.470;11.004;2023-06-10T08:13:04;21.00;58.40
6824;DHT22;58633;49.470;11.004;2023-06-10T08:15:30;22.10;59.20
6824;DHT22;58633;49.470;11.004;2023-06-10T08:17:55;22.10;58.80
6824;DHT22;58633;49.470;11.004;2023-06-10T08:20:22;22.00;58.30
6824;DHT22;58633;49.470;11.004;2023-06-10T08:22:47;22.20;58.30
6824;DHT22;58633;49.470;11.004;2023-06-10T08:25:13;22.10;58.70
6824;DHT22;58633;49.470;11.004;2023-06-10T08:30:05;22.40;57.50
6824;DHT22;58633;49.470;11.004;2023-06-10T08:32:30;22.60;57.30
6824;DHT22;58633;49.470;11.004;2023-06-10T08:34:56;22.50;57.30
6824;DHT22;58633;49.470;11.004;2023-06-10T08:37:22;22.40;56.90
6824;DHT22;58633;49.470;11.004;2023-06-10T08:39:49;22.60;57.30
6824;DHT22;58633;49.470;11.004;2023-06-10T08:42:28;22.60;57.10
6824;DHT22;58633;49.470;11.004;2023-06-10T08:44:56;22.70;57.10
6824;DHT22;58633;49.470;11.004;2023-06-10T08:47:23;22.90;56.50
6824;DHT22;58633;49.470;11.004;2023-06-10T08:49:50;22.90;56.50
6824;DHT22;58633;49.470;11.004;2023-06-10T08:52:19;23.40;56.70
6824;DHT22;58633;49.470;11.004;2023-06-10T08:55:02;23.10;56.10
6824;DHT22;58633;49.470;11.004;2023-06-10T08:57:30;23.30;55.90
6824;DHT22;58633;49.470;11.004;2023-06-10T08:59:57;23.30;55.70
6824;DHT22;58633;49.470;11.004;2023-06-10T09:02:24;23.20;55.40
6824;DHT22;58633;49.470;11.004;2023-06-10T09:04:50;23.10;55.80
6824;DHT22;58633;49.470;11.004;2023-06-10T09:07:17;23.50;55.40
6824;DHT22;58633;49.470;11.004;2023-06-10T09:09:44;23.40;55.70
6824;DHT22;58633;49.470;11.004;2023-06-10T09:12:10;23.70;55.30
6824;DHT22;58633;49.470;11.004;2023-06-10T09:17:04;23.70;54.70
6824;DHT22;58633;49.470;11.004;2023-06-10T09:19:30;23.80;54.70
6824;DHT22;58633;49.470;11.004;2023-06-10T09:24:22;24.00;54.30
6824;DHT22;58633;49.470;11.004;2023-06-10T09:26:49;24.00;54.40
6824;DHT22;58633;49.470;11.004;2023-06-10T09:29:16;24.30;53.50
6824;DHT22;58633;49.470;11.004;2023-06-10T09:31:43;24.50;53.40
6824;DHT22;58633;49.470;11.004;2023-06-10T09:34:12;26.20;54.80
6824;DHT22;58633;49.470;11.004;2023-06-10T09:36:40;24.60;52.90
6824;DHT22;58633;49.470;11.004;2023-06-10T09:39:14;24.80;52.80
6824;DHT22;58633;49.470;11.004;2023-06-10T09:41:42;25.00;52.80
6824;DHT22;58633;49.470;11.004;2023-06-10T09:44:20;25.10;52.20
6824;DHT22;58633;49.470;11.004;2023-06-10T09:46:47;25.10;52.50
6824;DHT22;58633;49.470;11.004;2023-06-10T09:49:13;25.30;51.50
6824;DHT22;58633;49.470;11.004;2023-06-10T09:51:52;25.60;51.00
6824;DHT22;58633;49.470;11.004;2023-06-10T09:54:19;25.60;50.90
6824;DHT22;58633;49.470;11.004;2023-06-10T09:56:47;25.70;50.70
6824;DHT22;58633;49.470;11.004;2023-06-10T09:59:13;25.70;51.00
6824;DHT22;58633;49.470;11.004;2023-06-10T10:01:39;26.00;50.10
6824;DHT22;58633;49.470;11.004;2023-06-10T10:04:04;26.30;50.00
6824;DHT22;58633;49.470;11.004;2023-06-10T10:06:30;28.60;52.00
6824;DHT22;58633;49.470;11.004;2023-06-10T10:08:56;26.50;50.30
6824;DHT22;58633;49.470;11.004;2023-06-10T10:11:22;26.90;49.80
6824;DHT22;58633;49.470;11.004;2023-06-10T10:13:50;27.10;49.30
6824;DHT22;58633;49.470;11.004;2023-06-10T10:16:21;27.10;48.90
6824;DHT22;58633;49.470;11.004;2023-06-10T10:18:54;27.20;48.70
6824;DHT22;58633;49.470;11.004;2023-06-10T10:21:23;27.20;48.70
6824;DHT22;58633;49.470;11.004;2023-06-10T10:26:25;27.50;48.30
6824;DHT22;58633;49.470;11.004;2023-06-10T10:31:23;27.60;48.10
6824;DHT22;58633;49.470;11.004;2023-06-10T10:33:55;27.70;48.60
6824;DHT22;58633;49.470;11.004;2023-06-10T10:36:23;28.20;47.10
6824;DHT22;58633;49.470;11.004;2023-06-10T10:38:48;28.40;46.70
6824;DHT22;58633;49.470;11.004;2023-06-10T10:41:18;28.40;47.00
6824;DHT22;58633;49.470;11.004;2023-06-10T10:43:45;28.80;46.30
6824;DHT22;58633;49.470;11.004;2023-06-10T10:46:14;29.00;46.50
6824;DHT22;58633;49.470;11.004;2023-06-10T10:48:40;29.20;45.50
6824;DHT22;58633;49.470;11.004;2023-06-10T10:51:10;29.10;45.60
6824;DHT22;58633;49.470;11.004;2023-06-10T10:53:39;28.80;45.30
6824;DHT22;58633;49.470;11.004;2023-06-10T10:56:13;28.60;45.70
6824;DHT22;58633;49.470;11.004;2023-06-10T10:58:39;28.60;45.80
6824;DHT22;58633;49.470;11.004;2023-06-10T11:01:12;28.40;46.10
6824;DHT22;58633;49.470;11.004;2023-06-10T11:03:46;28.50;46.30
6824;DHT22;58633;49.470;11.004;2023-06-10T11:06:14;28.70;45.70
6824;DHT22;58633;49.470;11.004;2023-06-10T11:11:38;28.50;45.60
6824;DHT22;58633;49.470;11.004;2023-06-10T11:14:29;28.30;45.90
6824;DHT22;58633;49.470;11.004;2023-06-10T11:16:58;28.50;46.40
6824;DHT22;58633;49.470;11.004;2023-06-10T11:19:37;28.60;46.50
6824;DHT22;58633;49.470;11.004;2023-06-10T11:22:06;29.00;46.10
6824;DHT22;58633;49.470;11.004;2023-06-10T11:24:32;29.40;45.70
6824;DHT22;58633;49.470;11.004;2023-06-10T11:27:15;29.50;45.20
6824;DHT22;58633;49.470;11.004;2023-06-10T11:29:58;29.50;45.40
6824;DHT22;58633;49.470;11.004;2023-06-10T11:32:29;29.70;44.20
6824;DHT22;58633;49.470;11.004;2023-06-10T11:34:56;29.80;44.30
6824;DHT22;58633;49.470;11.004;2023-06-10T11:37:21;29.90;44.30
6824;DHT22;58633;49.470;11.004;2023-06-10T11:42:13;30.20;43.60
6824;DHT22;58633;49.470;11.004;2023-06-10T11:44:50;30.10;43.20
6824;DHT22;58633;49.470;11.004;2023-06-10T11:47:17;30.40;43.50
6824;DHT22;58633;49.470;11.004;2023-06-10T11:49:42;30.60;43.00
6824;DHT22;58633;49.470;11.004;2023-06-10T11:52:08;30.90;42.20
6824;DHT22;58633;49.470;11.004;2023-06-10T11:54:33;31.20;41.50
6824;DHT22;58633;49.470;11.004;2023-06-10T11:56:59;31.30;41.00
6824;DHT22;58633;49.470;11.004;2023-06-10T12:01:59;31.70;40.60
6824;DHT22;58633;49.470;11.004;2023-06-10T12:04:25;31.80;40.30
6824;DHT22;58633;49.470;11.004;2023-06-10T12:06:55;32.00;40.30
6824;DHT22;58633;49.470;11.004;2023-06-10T12:09:26;32.20;40.50
6824;DHT22;58633;49.470;11.004;2023-06-10T12:11:57;32.60;39.70
6824;DHT22;58633;49.470;11.004;2023-06-10T12:17:36;33.00;39.40
6824;DHT22;58633;49.470;11.004;2023-06-10T12:20:08;35.20;38.70
6824;DHT22;58633;49.470;11.004;2023-06-10T12:22:42;36.40;35.80
6824;DHT22;58633;49.470;11.004;2023-06-10T12:25:09;35.90;35.00
6824;DHT22;58633;49.470;11.004;2023-06-10T12:27:35;35.20;36.60
6824;DHT22;58633;49.470;11.004;2023-06-10T12:30:03;35.50;36.50
6824;DHT22;58633;49.470;11.004;2023-06-10T12:32:44;40.50;31.20
6824;DHT22;58633;49.470;11.004;2023-06-10T12:35:11;40.60;31.10
6824;DHT22;58633;49.470;11.004;2023-06-10T12:37:41;41.40;29.70
6824;DHT22;58633;49.470;11.004;2023-06-10T12:40:07;41.00;28.70
6824;DHT22;58633;49.470;11.004;2023-06-10T12:42:35;42.20;29.10
6824;DHT22;58633;49.470;11.004;2023-06-10T12:45:01;42.30;29.20
6824;DHT22;58633;49.470;11.004;2023-06-10T12:47:34;42.30;28.40
6824;DHT22;58633;49.470;11.004;2023-06-10T12:50:01;42.30;28.70
6824;DHT22;58633;49.470;11.004;2023-06-10T12:52:27;41.80;28.00
6824;DHT22;58633;49.470;11.004;2023-06-10T12:54:54;41.80;28.50
6824;DHT22;58633;49.470;11.004;2023-06-10T12:57:20;41.70;28.70
6824;DHT22;58633;49.470;11.004;2023-06-10T12:59:46;41.50;29.00
6824;DHT22;58633;49.470;11.004;2023-06-10T13:02:20;39.90;29.70
6824;DHT22;58633;49.470;11.004;2023-06-10T13:04:49;36.50;32.40
6824;DHT22;58633;49.470;11.004;2023-06-10T13:07:15;36.70;33.00
6824;DHT22;58633;49.470;11.004;2023-06-10T13:09:41;34.90;34.60
6824;DHT22;58633;49.470;11.004;2023-06-10T13:12:06;34.70;34.90
6824;DHT22;58633;49.470;11.004;2023-06-10T13:14:33;33.80;35.70
6824;DHT22;58633;49.470;11.004;2023-06-10T13:16:58;33.90;36.10
6824;DHT22;58633;49.470;11.004;2023-06-10T13:19:24;33.70;36.50
6824;DHT22;58633;49.470;11.004;2023-06-10T13:21:50;33.60;36.10
6824;DHT22;58633;49.470;11.004;2023-06-10T13:24:16;33.90;36.00
6824;DHT22;58633;49.470;11.004;2023-06-10T13:26:42;33.80;36.30
6824;DHT22;58633;49.470;11.004;2023-06-10T13:29:07;34.60;35.30
6824;DHT22;58633;49.470;11.004;2023-06-10T13:31:39;35.50;34.60
6824;DHT22;58633;49.470;11.004;2023-06-10T13:34:04;36.30;33.60
6824;DHT22;58633;49.470;11.004;2023-06-10T13:36:30;36.90;33.30
6824;DHT22;58633;49.470;11.004;2023-06-10T13:38:55;36.90;33.10
6824;DHT22;58633;49.470;11.004;2023-06-10T13:41:21;37.70;31.40
6824;DHT22;58633;49.470;11.004;2023-06-10T13:43:46;38.20;31.40
6824;DHT22;58633;49.470;11.004;2023-06-10T13:46:12;38.50;31.30
6824;DHT22;58633;49.470;11.004;2023-06-10T13:48:38;38.70;31.30
6824;DHT22;58633;49.470;11.004;2023-06-10T13:51:03;38.10;31.40
6824;DHT22;58633;49.470;11.004;2023-06-10T13:53:29;37.20;31.60
6824;DHT22;58633;49.470;11.004;2023-06-10T13:55:54;36.60;32.20
6824;DHT22;58633;49.470;11.004;2023-06-10T14:00:46;35.30;33.20
6824;DHT22;58633;49.470;11.004;2023-06-10T14:03:12;34.80;33.80
6824;DHT22;58633;49.470;11.004;2023-06-10T14:05:38;34.50;34.20
6824;DHT22;58633;49.470;11.004;2023-06-10T14:08:04;34.20;34.60
6824;DHT22;58633;49.470;11.004;2023-06-10T14:10:30;34.00;35.00
6824;DHT22;58633;49.470;11.004;2023-06-10T14:12:55;33.90;35.20
6824;DHT22;58633;49.470;11.004;2023-06-10T14:15:21;33.70;35.20
6824;DHT22;58633;49.470;11.004;2023-06-10T14:17:47;33.80;35.70
6824;DHT22;58633;49.470;11.004;2023-06-10T14:20:12;33.50;35.50
6824;DHT22;58633;49.470;11.004;2023-06-10T14:22:38;33.50;35.40
6824;DHT22;58633;49.470;11.004;2023-06-10T14:25:04;34.00;35.10
6824;DHT22;58633;49.470;11.004;2023-06-10T14:27:29;34.90;34.80
6824;DHT22;58633;49.470;11.004;2023-06-10T14:29:55;34.80;34.80
6824;DHT22;58633;49.470;11.004;2023-06-10T14:32:20;35.70;33.30
6824;DHT22;58633;49.470;11.004;2023-06-10T14:34:46;35.80;33.80
6824;DHT22;58633;49.470;11.004;2023-06-10T14:37:12;35.70;33.30
6824;DHT22;58633;49.470;11.004;2023-06-10T14:39:38;35.10;33.70
6824;DHT22;58633;49.470;11.004;2023-06-10T14:42:03;34.50;34.00
6824;DHT22;58633;49.470;11.004;2023-06-10T14:44:29;34.30;34.40
6824;DHT22;58633;49.470;11.004;2023-06-10T14:46:55;34.00;34.90
6824;DHT22;58633;49.470;11.004;2023-06-10T14:49:20;33.80;35.10
6824;DHT22;58633;49.470;11.004;2023-06-10T14:51:46;33.70;35.60
6824;DHT22;58633;49.470;11.004;2023-06-10T14:54:11;33.60;35.80
6824;DHT22;58633;49.470;11.004;2023-06-10T14:56:37;33.80;36.00
6824;DHT22;58633;49.470;11.004;2023-06-10T14:59:02;34.30;34.70
6824;DHT22;58633;49.470;11.004;2023-06-10T15:01:28;34.40;34.90
6824;DHT22;58633;49.470;11.004;2023-06-10T15:03:53;35.00;33.90
6824;DHT22;58633;49.470;11.004;2023-06-10T15:06:19;35.00;33.60
6824;DHT22;58633;49.470;11.004;2023-06-10T15:08:48;35.10;33.90
6824;DHT22;58633;49.470;11.004;2023-06-10T15:11:14;35.30;33.80
6824;DHT22;58633;49.470;11.004;2023-06-10T15:13:40;35.50;33.20
6824;DHT22;58633;49.470;11.004;2023-06-10T15:16:05;35.60;32.90
6824;DHT22;58633;49.470;11.004;2023-06-10T15:18:31;35.70;33.40
6824;DHT22;58633;49.470;11.004;2023-06-10T15:20:57;36.00;32.80
6824;DHT22;58633;49.470;11.004;2023-06-10T15:23:23;36.10;32.90
6824;DHT22;58633;49.470;11.004;2023-06-10T15:25:48;36.60;33.60
6824;DHT22;58633;49.470;11.004;2023-06-10T15:28:14;36.20;33.00
6824;DHT22;58633;49.470;11.004;2023-06-10T15:30:39;36.40;32.60
6824;DHT22;58633;49.470;11.004;2023-06-10T15:33:05;36.40;32.60
6824;DHT22;58633;49.470;11.004;2023-06-10T15:35:32;36.50;33.10
6824;DHT22;58633;49.470;11.004;2023-06-10T15:37:57;36.40;33.20
6824;DHT22;58633;49.470;11.004;2023-06-10T15:40:23;36.40;33.20
6824;DHT22;58633;49.470;11.004;2023-06-10T15:42:48;36.00;32.90
6824;DHT22;58633;49.470;11.004;2023-06-10T15:45:14;35.80;33.20
6824;DHT22;58633;49.470;11.004;2023-06-10T15:47:39;35.70;33.20
6824;DHT22;58633;49.470;11.004;2023-06-10T15:50:08;35.90;33.40
6824;DHT22;58633;49.470;11.004;2023-06-10T15:52:34;35.80;33.40
6824;DHT22;58633;49.470;11.004;2023-06-10T15:54:59;35.40;33.50
6824;DHT22;58633;49.470;11.004;2023-06-10T15:57:25;35.40;34.00
6824;DHT22;58633;49.470;11.004;2023-06-10T15:59:50;35.10;33.90
6824;DHT22;58633;49.470;11.004;2023-06-10T16:02:16;35.00;34.00
6824;DHT22;58633;49.470;11.004;2023-06-10T16:04:41;35.00;34.40
6824;DHT22;58633;49.470;11.004;2023-06-10T16:07:07;37.30;36.30
6824;DHT22;58633;49.470;11.004;2023-06-10T16:09:32;34.60;35.20
6824;DHT22;58633;49.470;11.004;2023-06-10T16:11:58;33.70;35.10
6824;DHT22;58633;49.470;11.004;2023-06-10T16:14:24;33.40;35.30
6824;DHT22;58633;49.470;11.004;2023-06-10T16:16:49;33.30;35.50
6824;DHT22;58633;49.470;11.004;2023-06-10T16:19:15;33.10;35.70
6824;DHT22;58633;49.470;11.004;2023-06-10T16:21:40;32.60;35.80
6824;DHT22;58633;49.470;11.004;2023-06-10T16:24:07;32.50;36.10
6824;DHT22;58633;49.470;11.004;2023-06-10T16:26:33;32.50;36.80
6824;DHT22;58633;49.470;11.004;2023-06-10T16:28:58;32.00;36.80
6824;DHT22;58633;49.470;11.004;2023-06-10T16:31:24;32.00;37.30
6824;DHT22;58633;49.470;11.004;2023-06-10T16:36:15;32.00;37.50
6824;DHT22;58633;49.470;11.004;2023-06-10T16:38:41;32.10;38.10